Uppdatera informationen genom att klicka på tidkoden mellan uppdateringssymbolerna i översta svarta fältet.
Tidkoden visar när senaste uppdateringen av sidan gjordes i zulutid.
FJAR - METAR (ingen TAF tillgänglig)
    00  AUTO 14008KT 22/22 Q1013=
    10  AUTO 19010KT 22/22 Q1013=
261320Z AUTO 20010KT 21/21 Q1013=
    30  AUTO 19011KT 21/21 Q1014=
    40  AUTO 20013KT 20/20 Q1014=
261350Z AUTO 21013KT 19/19 Q1013=
    00  AUTO 21007KT 18/18 Q1014=
    10  AUTO 20004KT 17/17 Q1014=
261420Z AUTO 22003KT 17/17 Q1013=
    30  AUTO VRB01KT 17/17 Q1013=
Vind Fjärås 16:32 lokal tid (100%,100%)

  2 minuter: medel 130° 03kt, byar 04kt
      08/26  sidvind    02kt, byar 03kt

 10 minuter: medel 150° 02kt, byar 04kt
             var   130°-200°
FORL - METAR (ingen TAF tillgänglig)
    00  ---- NO DATA RECEIVED=
    10  ---- NO DATA RECEIVED=
261320Z ---- NO DATA RECEIVED=
    30  ---- NO DATA RECEIVED=
    40  ---- NO DATA RECEIVED=
261350Z ---- NO DATA RECEIVED=
    00  ---- NO DATA RECEIVED=
    10  ---- NO DATA RECEIVED=
261420Z ---- NO DATA RECEIVED=
    30  ---- NO DATA RECEIVED=
Vind Förlanda 16:32 lokal tid (100%,00%)

  2 minuter: medel 130° 03kt, byar 04kt
      06/24  sidvind    02kt, byar 04kt

 10 minuter: otillräcklig data...
ESGP - METAR (ingen TAF tillgänglig)
261250Z AUTO 15006KT 100V190 9999 FEW021/// BKN066/// 20/15 Q1019=
261320Z AUTO 11005KT 9999 -RA FEW031/// BKN062/// BKN092/// 19/14 Q1018=
261350Z AUTO 12004KT 090V150 9999 FEW051/// SCT096/// 20/15 Q1019=
261420Z AUTO 19010KT 9999 SCT039/// 19/14 Q1019=
ESGG - METAR & TAF
261250Z 15007KT 9999 -RA FEW035CB BKN082 18/13 Q1019=
261320Z 12008KT 090V160 9999 FEW035CB SCT100 21/16 Q1019=
261350Z 10006KT 9999 -RA SCT055CB BKN088 19/14 Q1019=
261420Z 18009KT 130V210 9999 FEW055CB BKN092 18/14 Q1019=
TAF ESGG 261130Z 2612/2712 11010KT CAVOK TEMPO 2612/2618 4000 TSRA BKN060CB PROB40 2623/2704 TSRA BKN050CB TEMPO 2709/2712 SHRA BKN050CB=
ESMT - METAR & TAF
261250Z 13013KT 100V160 9999 NSC 24/12 Q1019=
261320Z 17013KT 9999 FEW079 23/14 Q1019=
261350Z 19011KT 9999 NCD 22/14 Q1018=
261420Z 18010KT 9999 FEW064/// 21/13 Q1018=
TAF ESMT 261355Z 2613/2619 19012KT 9999 SCT035 TEMPO 2613/2619 SHRA SCT025CB BECMG 2616/2618 13012KT=
Aktuell SWC
Aktuell VFR-analys
VFR-prognos för morgondagen 06 UTC
Endast mellan 16 och 24
VFR-prognos för morgondagen 12 UTC
Endast mellan 16 och 24
Datakällor
Standard METAR & TAF
- Meteorologisk institutt, Norge
Icke standard METAR & TAF
- Säve: wx.awos.se
- Fjärås: metar.se
- Förlanda: metar.se
Grafik SWC & VFR-analys/prognos
- Luftfartsverket
Kontakt
Daniel Bengtsson - met@tulebo.se